sensor_id;sensor_type;location;lat;lon;timestamp;P1;durP1;ratioP1;P2;durP2;ratioP2
21546;SDS011;41275;51.912;4.388;2023-06-22T00:03:36;11.67;;;5.90;;
21546;SDS011;41275;51.912;4.388;2023-06-22T00:08:57;11.38;;;5.90;;
21546;SDS011;41275;51.912;4.388;2023-06-22T00:14:18;12.10;;;6.10;;
21546;SDS011;41275;51.912;4.388;2023-06-22T00:19:40;11.27;;;5.80;;
21546;SDS011;41275;51.912;4.388;2023-06-22T00:25:01;11.50;;;6.50;;
21546;SDS011;41275;51.912;4.388;2023-06-22T00:30:22;11.77;;;6.33;;
21546;SDS011;41275;51.912;4.388;2023-06-22T00:35:43;14.02;;;6.20;;
21546;SDS011;41275;51.912;4.388;2023-06-22T00:41:05;13.25;;;6.32;;
21546;SDS011;41275;51.912;4.388;2023-06-22T00:46:26;13.02;;;6.75;;
21546;SDS011;41275;51.912;4.388;2023-06-22T00:51:47;13.73;;;7.13;;
21546;SDS011;41275;51.912;4.388;2023-06-22T00:57:09;15.10;;;7.07;;
21546;SDS011;41275;51.912;4.388;2023-06-22T01:02:36;15.87;;;7.83;;
21546;SDS011;41275;51.912;4.388;2023-06-22T01:08:12;16.42;;;7.70;;
21546;SDS011;41275;51.912;4.388;2023-06-22T01:25:15;16.20;;;7.93;;
21546;SDS011;41275;51.912;4.388;2023-06-22T01:30:41;15.57;;;8.65;;
21546;SDS011;41275;51.912;4.388;2023-06-22T01:36:03;18.20;;;8.23;;
21546;SDS011;41275;51.912;4.388;2023-06-22T01:41:27;18.57;;;9.13;;
21546;SDS011;41275;51.912;4.388;2023-06-22T01:46:50;18.80;;;8.68;;
21546;SDS011;41275;51.912;4.388;2023-06-22T01:52:12;16.60;;;8.43;;
21546;SDS011;41275;51.912;4.388;2023-06-22T01:57:34;17.20;;;8.43;;
21546;SDS011;41275;51.912;4.388;2023-06-22T02:08:44;19.23;;;9.15;;
21546;SDS011;41275;51.912;4.388;2023-06-22T02:14:10;18.50;;;8.63;;
21546;SDS011;41275;51.912;4.388;2023-06-22T02:19:35;17.38;;;9.10;;
21546;SDS011;41275;51.912;4.388;2023-06-22T02:24:57;20.00;;;9.50;;
21546;SDS011;41275;51.912;4.388;2023-06-22T02:30:19;19.13;;;10.32;;
21546;SDS011;41275;51.912;4.388;2023-06-22T02:35:40;19.10;;;10.60;;
21546;SDS011;41275;51.912;4.388;2023-06-22T02:41:06;21.90;;;10.07;;
21546;SDS011;41275;51.912;4.388;2023-06-22T02:46:27;20.88;;;11.02;;
21546;SDS011;41275;51.912;4.388;2023-06-22T02:51:49;21.57;;;10.97;;
21546;SDS011;41275;51.912;4.388;2023-06-22T02:57:10;24.88;;;11.88;;
21546;SDS011;41275;51.912;4.388;2023-06-22T03:02:34;22.60;;;11.80;;
21546;SDS011;41275;51.912;4.388;2023-06-22T03:07:55;24.02;;;11.85;;
21546;SDS011;41275;51.912;4.388;2023-06-22T03:13:16;24.75;;;12.25;;
21546;SDS011;41275;51.912;4.388;2023-06-22T03:18:37;24.87;;;12.47;;
21546;SDS011;41275;51.912;4.388;2023-06-22T03:23:59;25.90;;;12.02;;
21546;SDS011;41275;51.912;4.388;2023-06-22T03:29:20;28.27;;;12.37;;
21546;SDS011;41275;51.912;4.388;2023-06-22T03:34:41;23.80;;;11.82;;
21546;SDS011;41275;51.912;4.388;2023-06-22T03:40:07;26.47;;;12.37;;
21546;SDS011;41275;51.912;4.388;2023-06-22T03:45:28;28.63;;;13.70;;
21546;SDS011;41275;51.912;4.388;2023-06-22T03:50:49;26.55;;;12.98;;
21546;SDS011;41275;51.912;4.388;2023-06-22T03:56:11;27.97;;;12.73;;
21546;SDS011;41275;51.912;4.388;2023-06-22T04:01:32;29.08;;;12.68;;
21546;SDS011;41275;51.912;4.388;2023-06-22T04:06:53;26.83;;;13.48;;
21546;SDS011;41275;51.912;4.388;2023-06-22T04:12:14;26.80;;;13.55;;
21546;SDS011;41275;51.912;4.388;2023-06-22T04:17:35;27.25;;;12.23;;
21546;SDS011;41275;51.912;4.388;2023-06-22T04:22:57;24.42;;;12.25;;
21546;SDS011;41275;51.912;4.388;2023-06-22T04:28:18;27.05;;;12.82;;
21546;SDS011;41275;51.912;4.388;2023-06-22T04:33:39;23.65;;;12.13;;
21546;SDS011;41275;51.912;4.388;2023-06-22T04:39:01;29.65;;;14.07;;
21546;SDS011;41275;51.912;4.388;2023-06-22T04:44:22;28.23;;;14.25;;
21546;SDS011;41275;51.912;4.388;2023-06-22T04:49:46;26.23;;;13.32;;
21546;SDS011;41275;51.912;4.388;2023-06-22T04:55:08;29.48;;;13.82;;
21546;SDS011;41275;51.912;4.388;2023-06-22T05:00:29;29.03;;;13.20;;
21546;SDS011;41275;51.912;4.388;2023-06-22T05:05:52;26.52;;;12.52;;
21546;SDS011;41275;51.912;4.388;2023-06-22T05:11:13;25.33;;;12.98;;
21546;SDS011;41275;51.912;4.388;2023-06-22T05:16:35;25.27;;;12.80;;
21546;SDS011;41275;51.912;4.388;2023-06-22T05:21:57;25.30;;;12.03;;
21546;SDS011;41275;51.912;4.388;2023-06-22T05:27:18;23.52;;;11.70;;
21546;SDS011;41275;51.912;4.388;2023-06-22T05:32:39;20.88;;;11.50;;
21546;SDS011;41275;51.912;4.388;2023-06-22T05:38:00;22.47;;;11.03;;
21546;SDS011;41275;51.912;4.388;2023-06-22T05:43:21;18.83;;;10.73;;
21546;SDS011;41275;51.912;4.388;2023-06-22T05:48:43;20.67;;;10.07;;
21546;SDS011;41275;51.912;4.388;2023-06-22T05:54:04;20.55;;;10.82;;
21546;SDS011;41275;51.912;4.388;2023-06-22T05:59:25;19.17;;;9.88;;
21546;SDS011;41275;51.912;4.388;2023-06-22T06:04:46;18.13;;;10.38;;
21546;SDS011;41275;51.912;4.388;2023-06-22T06:10:08;23.20;;;10.63;;
21546;SDS011;41275;51.912;4.388;2023-06-22T06:15:30;20.90;;;10.13;;
21546;SDS011;41275;51.912;4.388;2023-06-22T06:20:53;25.48;;;10.60;;
21546;SDS011;41275;51.912;4.388;2023-06-22T06:26:14;16.77;;;9.30;;
21546;SDS011;41275;51.912;4.388;2023-06-22T06:31:37;18.70;;;8.30;;
21546;SDS011;41275;51.912;4.388;2023-06-22T06:36:58;17.58;;;9.15;;
21546;SDS011;41275;51.912;4.388;2023-06-22T06:42:19;16.92;;;7.47;;
21546;SDS011;41275;51.912;4.388;2023-06-22T06:47:40;14.40;;;8.30;;
21546;SDS011;41275;51.912;4.388;2023-06-22T06:53:02;14.13;;;7.50;;
21546;SDS011;41275;51.912;4.388;2023-06-22T06:58:23;14.10;;;7.15;;
21546;SDS011;41275;51.912;4.388;2023-06-22T07:03:44;16.05;;;6.72;;
21546;SDS011;41275;51.912;4.388;2023-06-22T07:09:05;12.75;;;6.28;;
21546;SDS011;41275;51.912;4.388;2023-06-22T07:14:26;13.93;;;5.90;;
21546;SDS011;41275;51.912;4.388;2023-06-22T07:19:48;9.53;;;4.87;;
21546;SDS011;41275;51.912;4.388;2023-06-22T07:25:09;10.27;;;4.57;;
21546;SDS011;41275;51.912;4.388;2023-06-22T07:30:31;9.70;;;4.57;;
21546;SDS011;41275;51.912;4.388;2023-06-22T07:35:53;9.70;;;4.60;;
21546;SDS011;41275;51.912;4.388;2023-06-22T07:41:14;10.33;;;5.00;;
21546;SDS011;41275;51.912;4.388;2023-06-22T07:46:35;8.15;;;3.40;;
21546;SDS011;41275;51.912;4.388;2023-06-22T07:51:57;7.18;;;3.53;;
21546;SDS011;41275;51.912;4.388;2023-06-22T07:57:18;10.83;;;3.27;;
21546;SDS011;41275;51.912;4.388;2023-06-22T08:02:40;16.33;;;3.13;;
21546;SDS011;41275;51.912;4.388;2023-06-22T08:08:02;34.70;;;4.85;;
21546;SDS011;41275;51.912;4.388;2023-06-22T08:13:23;7.13;;;1.98;;
21546;SDS011;41275;51.912;4.388;2023-06-22T08:18:44;9.45;;;2.55;;
21546;SDS011;41275;51.912;4.388;2023-06-22T08:24:06;6.38;;;2.90;;
21546;SDS011;41275;51.912;4.388;2023-06-22T08:29:28;5.13;;;1.92;;
21546;SDS011;41275;51.912;4.388;2023-06-22T08:34:49;18.90;;;2.72;;
21546;SDS011;41275;51.912;4.388;2023-06-22T08:40:10;10.77;;;2.40;;
21546;SDS011;41275;51.912;4.388;2023-06-22T08:45:32;47.43;;;4.90;;
21546;SDS011;41275;51.912;4.388;2023-06-22T08:50:53;57.53;;;4.40;;
21546;SDS011;41275;51.912;4.388;2023-06-22T08:56:14;3.47;;;1.47;;
21546;SDS011;41275;51.912;4.388;2023-06-22T09:01:36;19.05;;;1.70;;
21546;SDS011;41275;51.912;4.388;2023-06-22T09:06:57;6.05;;;1.67;;
21546;SDS011;41275;51.912;4.388;2023-06-22T09:12:19;3.47;;;1.75;;
21546;SDS011;41275;51.912;4.388;2023-06-22T09:17:42;4.28;;;1.67;;
21546;SDS011;41275;51.912;4.388;2023-06-22T09:23:04;3.53;;;1.30;;
21546;SDS011;41275;51.912;4.388;2023-06-22T09:28:25;6.15;;;1.70;;
21546;SDS011;41275;51.912;4.388;2023-06-22T09:33:46;35.67;;;3.42;;
21546;SDS011;41275;51.912;4.388;2023-06-22T09:39:07;5.82;;;2.40;;
21546;SDS011;41275;51.912;4.388;2023-06-22T09:44:29;6.90;;;3.15;;
21546;SDS011;41275;51.912;4.388;2023-06-22T09:49:50;6.18;;;2.88;;
21546;SDS011;41275;51.912;4.388;2023-06-22T09:55:11;8.27;;;3.00;;
21546;SDS011;41275;51.912;4.388;2023-06-22T10:00:32;59.20;;;6.10;;
21546;SDS011;41275;51.912;4.388;2023-06-22T10:06:09;7.80;;;3.45;;
21546;SDS011;41275;51.912;4.388;2023-06-22T10:11:31;10.35;;;3.75;;
21546;SDS011;41275;51.912;4.388;2023-06-22T10:16:52;10.18;;;5.82;;
21546;SDS011;41275;51.912;4.388;2023-06-22T10:22:13;6.75;;;3.58;;
21546;SDS011;41275;51.912;4.388;2023-06-22T10:27:35;34.15;;;5.70;;
21546;SDS011;41275;51.912;4.388;2023-06-22T10:32:56;26.92;;;5.10;;
21546;SDS011;41275;51.912;4.388;2023-06-22T10:38:17;24.30;;;5.00;;
21546;SDS011;41275;51.912;4.388;2023-06-22T10:43:39;37.25;;;5.00;;
21546;SDS011;41275;51.912;4.388;2023-06-22T10:49:00;11.00;;;5.97;;
21546;SDS011;41275;51.912;4.388;2023-06-22T10:54:21;9.57;;;4.77;;
21546;SDS011;41275;51.912;4.388;2023-06-22T10:59:42;21.97;;;11.13;;
21546;SDS011;41275;51.912;4.388;2023-06-22T11:05:04;12.63;;;5.70;;
21546;SDS011;41275;51.912;4.388;2023-06-22T11:10:25;47.08;;;6.15;;
21546;SDS011;41275;51.912;4.388;2023-06-22T11:15:47;16.30;;;4.97;;
21546;SDS011;41275;51.912;4.388;2023-06-22T11:21:08;9.27;;;4.25;;
21546;SDS011;41275;51.912;4.388;2023-06-22T11:26:30;37.17;;;5.93;;
21546;SDS011;41275;51.912;4.388;2023-06-22T11:31:52;8.57;;;5.63;;
21546;SDS011;41275;51.912;4.388;2023-06-22T11:37:13;11.18;;;5.72;;
21546;SDS011;41275;51.912;4.388;2023-06-22T11:42:36;10.43;;;5.57;;
21546;SDS011;41275;51.912;4.388;2023-06-22T11:47:57;8.23;;;3.97;;
21546;SDS011;41275;51.912;4.388;2023-06-22T11:53:18;9.50;;;6.45;;
21546;SDS011;41275;51.912;4.388;2023-06-22T11:58:39;10.55;;;5.30;;
21546;SDS011;41275;51.912;4.388;2023-06-22T12:04:00;10.02;;;5.53;;
21546;SDS011;41275;51.912;4.388;2023-06-22T12:09:22;10.87;;;6.00;;
21546;SDS011;41275;51.912;4.388;2023-06-22T12:14:43;11.43;;;5.40;;
21546;SDS011;41275;51.912;4.388;2023-06-22T12:20:04;39.55;;;6.65;;
21546;SDS011;41275;51.912;4.388;2023-06-22T12:25:26;31.42;;;7.88;;
21546;SDS011;41275;51.912;4.388;2023-06-22T12:30:48;8.85;;;5.47;;
21546;SDS011;41275;51.912;4.388;2023-06-22T12:36:09;14.35;;;5.70;;
21546;SDS011;41275;51.912;4.388;2023-06-22T12:41:30;10.15;;;5.07;;
21546;SDS011;41275;51.912;4.388;2023-06-22T12:46:51;8.93;;;4.90;;
21546;SDS011;41275;51.912;4.388;2023-06-22T12:52:12;13.70;;;6.07;;
21546;SDS011;41275;51.912;4.388;2023-06-22T12:57:34;20.10;;;4.50;;
21546;SDS011;41275;51.912;4.388;2023-06-22T13:02:55;7.93;;;4.22;;
21546;SDS011;41275;51.912;4.388;2023-06-22T13:08:16;9.15;;;4.85;;
21546;SDS011;41275;51.912;4.388;2023-06-22T13:13:38;15.07;;;6.85;;
21546;SDS011;41275;51.912;4.388;2023-06-22T13:18:59;13.35;;;6.85;;
21546;SDS011;41275;51.912;4.388;2023-06-22T13:24:20;14.80;;;7.25;;
21546;SDS011;41275;51.912;4.388;2023-06-22T13:29:42;11.57;;;6.50;;
21546;SDS011;41275;51.912;4.388;2023-06-22T13:35:03;15.43;;;8.75;;
21546;SDS011;41275;51.912;4.388;2023-06-22T13:40:24;12.93;;;7.30;;
21546;SDS011;41275;51.912;4.388;2023-06-22T13:45:46;15.65;;;8.07;;
21546;SDS011;41275;51.912;4.388;2023-06-22T13:51:07;12.95;;;7.30;;
21546;SDS011;41275;51.912;4.388;2023-06-22T13:56:28;14.15;;;7.95;;
21546;SDS011;41275;51.912;4.388;2023-06-22T14:01:49;14.77;;;8.88;;
21546;SDS011;41275;51.912;4.388;2023-06-22T14:07:11;13.37;;;8.33;;
21546;SDS011;41275;51.912;4.388;2023-06-22T14:12:32;15.32;;;8.38;;
21546;SDS011;41275;51.912;4.388;2023-06-22T14:17:53;14.98;;;8.90;;
21546;SDS011;41275;51.912;4.388;2023-06-22T14:23:14;15.93;;;9.70;;
21546;SDS011;41275;51.912;4.388;2023-06-22T14:28:36;18.10;;;9.27;;
21546;SDS011;41275;51.912;4.388;2023-06-22T14:33:57;15.55;;;9.27;;
21546;SDS011;41275;51.912;4.388;2023-06-22T14:39:18;17.92;;;9.55;;
21546;SDS011;41275;51.912;4.388;2023-06-22T14:44:41;16.58;;;9.95;;
21546;SDS011;41275;51.912;4.388;2023-06-22T14:50:02;13.73;;;7.85;;
21546;SDS011;41275;51.912;4.388;2023-06-22T14:55:24;13.43;;;8.13;;
21546;SDS011;41275;51.912;4.388;2023-06-22T15:00:45;12.57;;;7.85;;
21546;SDS011;41275;51.912;4.388;2023-06-22T15:06:07;17.23;;;8.80;;
21546;SDS011;41275;51.912;4.388;2023-06-22T15:11:29;16.60;;;9.40;;
21546;SDS011;41275;51.912;4.388;2023-06-22T15:16:50;17.40;;;9.33;;
21546;SDS011;41275;51.912;4.388;2023-06-22T15:22:12;15.70;;;9.93;;
21546;SDS011;41275;51.912;4.388;2023-06-22T15:27:33;16.27;;;10.10;;
21546;SDS011;41275;51.912;4.388;2023-06-22T15:32:55;18.93;;;11.17;;
21546;SDS011;41275;51.912;4.388;2023-06-22T15:38:16;15.50;;;10.27;;
21546;SDS011;41275;51.912;4.388;2023-06-22T15:43:37;17.37;;;9.70;;
21546;SDS011;41275;51.912;4.388;2023-06-22T15:48:58;17.20;;;9.20;;
21546;SDS011;41275;51.912;4.388;2023-06-22T15:54:19;18.20;;;9.43;;
21546;SDS011;41275;51.912;4.388;2023-06-22T15:59:41;12.27;;;7.10;;
21546;SDS011;41275;51.912;4.388;2023-06-22T16:05:02;10.85;;;6.43;;
21546;SDS011;41275;51.912;4.388;2023-06-22T16:10:24;9.30;;;6.00;;
21546;SDS011;41275;51.912;4.388;2023-06-22T16:15:45;10.60;;;6.00;;
21546;SDS011;41275;51.912;4.388;2023-06-22T16:21:06;9.70;;;5.70;;
21546;SDS011;41275;51.912;4.388;2023-06-22T16:26:29;11.40;;;6.30;;
21546;SDS011;41275;51.912;4.388;2023-06-22T16:31:51;9.97;;;6.20;;
21546;SDS011;41275;51.912;4.388;2023-06-22T16:37:12;11.03;;;6.40;;
21546;SDS011;41275;51.912;4.388;2023-06-22T16:42:34;10.27;;;6.23;;
21546;SDS011;41275;51.912;4.388;2023-06-22T16:47:55;9.83;;;5.67;;
21546;SDS011;41275;51.912;4.388;2023-06-22T16:53:17;9.50;;;5.53;;
21546;SDS011;41275;51.912;4.388;2023-06-22T16:58:39;12.13;;;5.67;;
21546;SDS011;41275;51.912;4.388;2023-06-22T17:04:05;9.10;;;5.15;;
21546;SDS011;41275;51.912;4.388;2023-06-22T17:09:29;8.75;;;5.43;;
21546;SDS011;41275;51.912;4.388;2023-06-22T17:14:52;8.40;;;5.43;;
21546;SDS011;41275;51.912;4.388;2023-06-22T17:20:13;10.30;;;5.75;;
21546;SDS011;41275;51.912;4.388;2023-06-22T17:25:35;9.83;;;6.00;;
21546;SDS011;41275;51.912;4.388;2023-06-22T17:31:08;11.20;;;5.78;;
21546;SDS011;41275;51.912;4.388;2023-06-22T17:36:39;11.40;;;5.20;;
21546;SDS011;41275;51.912;4.388;2023-06-22T17:42:01;9.55;;;5.40;;
21546;SDS011;41275;51.912;4.388;2023-06-22T17:47:23;7.70;;;4.50;;
21546;SDS011;41275;51.912;4.388;2023-06-22T17:52:50;6.47;;;3.50;;
21546;SDS011;41275;51.912;4.388;2023-06-22T17:58:16;8.68;;;3.88;;
21546;SDS011;41275;51.912;4.388;2023-06-22T18:03:37;6.60;;;3.28;;
21546;SDS011;41275;51.912;4.388;2023-06-22T18:09:00;6.63;;;2.90;;
21546;SDS011;41275;51.912;4.388;2023-06-22T18:14:23;5.68;;;2.40;;
21546;SDS011;41275;51.912;4.388;2023-06-22T18:19:44;7.03;;;2.70;;
21546;SDS011;41275;51.912;4.388;2023-06-22T18:25:07;5.97;;;2.30;;
21546;SDS011;41275;51.912;4.388;2023-06-22T18:30:30;6.28;;;2.10;;
21546;SDS011;41275;51.912;4.388;2023-06-22T18:35:52;9.05;;;3.38;;
21546;SDS011;41275;51.912;4.388;2023-06-22T18:41:21;5.85;;;2.05;;
21546;SDS011;41275;51.912;4.388;2023-06-22T18:46:44;4.33;;;1.77;;
21546;SDS011;41275;51.912;4.388;2023-06-22T18:52:06;7.23;;;1.87;;
21546;SDS011;41275;51.912;4.388;2023-06-22T18:57:35;4.20;;;1.63;;
21546;SDS011;41275;51.912;4.388;2023-06-22T19:02:58;4.82;;;2.00;;
21546;SDS011;41275;51.912;4.388;2023-06-22T19:08:19;4.10;;;1.70;;
21546;SDS011;41275;51.912;4.388;2023-06-22T19:13:46;4.13;;;1.70;;
21546;SDS011;41275;51.912;4.388;2023-06-22T19:19:12;5.95;;;2.20;;
21546;SDS011;41275;51.912;4.388;2023-06-22T19:24:47;4.63;;;2.13;;
21546;SDS011;41275;51.912;4.388;2023-06-22T19:30:10;4.30;;;2.00;;
21546;SDS011;41275;51.912;4.388;2023-06-22T19:35:34;4.77;;;1.90;;
21546;SDS011;41275;51.912;4.388;2023-06-22T19:40:55;4.38;;;1.83;;
21546;SDS011;41275;51.912;4.388;2023-06-22T19:46:18;5.17;;;2.00;;
21546;SDS011;41275;51.912;4.388;2023-06-22T19:51:49;7.05;;;2.13;;
21546;SDS011;41275;51.912;4.388;2023-06-22T19:57:10;5.67;;;2.10;;
21546;SDS011;41275;51.912;4.388;2023-06-22T20:02:32;5.68;;;2.50;;
21546;SDS011;41275;51.912;4.388;2023-06-22T20:07:53;6.88;;;2.72;;
21546;SDS011;41275;51.912;4.388;2023-06-22T20:13:15;6.07;;;2.60;;
21546;SDS011;41275;51.912;4.388;2023-06-22T20:18:44;7.30;;;2.50;;
21546;SDS011;41275;51.912;4.388;2023-06-22T20:24:06;5.03;;;2.60;;
21546;SDS011;41275;51.912;4.388;2023-06-22T20:29:29;7.77;;;2.90;;
21546;SDS011;41275;51.912;4.388;2023-06-22T20:34:53;6.70;;;2.58;;
21546;SDS011;41275;51.912;4.388;2023-06-22T20:40:14;10.17;;;2.73;;
21546;SDS011;41275;51.912;4.388;2023-06-22T20:45:36;7.55;;;2.45;;
21546;SDS011;41275;51.912;4.388;2023-06-22T20:50:57;8.60;;;2.87;;
21546;SDS011;41275;51.912;4.388;2023-06-22T20:56:18;7.13;;;2.53;;
21546;SDS011;41275;51.912;4.388;2023-06-22T21:01:39;5.50;;;2.50;;
21546;SDS011;41275;51.912;4.388;2023-06-22T21:07:01;7.27;;;2.60;;
21546;SDS011;41275;51.912;4.388;2023-06-22T21:12:22;5.63;;;2.60;;
21546;SDS011;41275;51.912;4.388;2023-06-22T21:17:45;8.20;;;2.57;;
21546;SDS011;41275;51.912;4.388;2023-06-22T21:23:07;7.38;;;2.80;;
21546;SDS011;41275;51.912;4.388;2023-06-22T21:28:28;5.82;;;2.20;;
21546;SDS011;41275;51.912;4.388;2023-06-22T21:33:50;6.60;;;2.60;;
21546;SDS011;41275;51.912;4.388;2023-06-22T21:39:11;8.43;;;2.67;;
21546;SDS011;41275;51.912;4.388;2023-06-22T21:44:32;7.43;;;2.53;;
21546;SDS011;41275;51.912;4.388;2023-06-22T21:49:53;7.60;;;2.40;;
21546;SDS011;41275;51.912;4.388;2023-06-22T21:55:14;7.00;;;2.50;;
21546;SDS011;41275;51.912;4.388;2023-06-22T22:00:36;8.23;;;2.80;;
21546;SDS011;41275;51.912;4.388;2023-06-22T22:05:57;5.30;;;2.58;;
21546;SDS011;41275;51.912;4.388;2023-06-22T22:11:18;6.97;;;3.00;;
21546;SDS011;41275;51.912;4.388;2023-06-22T22:16:40;6.60;;;2.78;;
21546;SDS011;41275;51.912;4.388;2023-06-22T22:22:01;7.25;;;2.50;;
21546;SDS011;41275;51.912;4.388;2023-06-22T22:27:24;6.93;;;2.72;;
21546;SDS011;41275;51.912;4.388;2023-06-22T22:32:45;7.73;;;2.80;;
21546;SDS011;41275;51.912;4.388;2023-06-22T22:38:07;8.10;;;2.80;;
21546;SDS011;41275;51.912;4.388;2023-06-22T22:43:28;6.38;;;2.85;;
21546;SDS011;41275;51.912;4.388;2023-06-22T22:48:49;6.57;;;2.80;;
21546;SDS011;41275;51.912;4.388;2023-06-22T22:54:11;7.53;;;2.97;;
21546;SDS011;41275;51.912;4.388;2023-06-22T22:59:32;6.20;;;2.97;;
21546;SDS011;41275;51.912;4.388;2023-06-22T23:04:54;6.15;;;2.92;;
21546;SDS011;41275;51.912;4.388;2023-06-22T23:10:16;9.23;;;3.63;;
21546;SDS011;41275;51.912;4.388;2023-06-22T23:15:37;7.03;;;3.22;;
21546;SDS011;41275;51.912;4.388;2023-06-22T23:20:59;5.53;;;3.03;;
21546;SDS011;41275;51.912;4.388;2023-06-22T23:26:20;8.82;;;3.50;;
21546;SDS011;41275;51.912;4.388;2023-06-22T23:31:41;7.70;;;3.20;;
21546;SDS011;41275;51.912;4.388;2023-06-22T23:37:03;6.97;;;2.92;;
21546;SDS011;41275;51.912;4.388;2023-06-22T23:42:24;7.10;;;3.63;;
21546;SDS011;41275;51.912;4.388;2023-06-22T23:47:46;5.73;;;3.20;;
21546;SDS011;41275;51.912;4.388;2023-06-22T23:53:08;6.13;;;3.40;;
21546;SDS011;41275;51.912;4.388;2023-06-22T23:58:29;7.25;;;3.22;;
